sensor_id;sensor_type;location;lat;lon;timestamp;temperature;humidity
57624;SHT30;43448;52.264;20.644;2023-05-10T00:00:01;25.82;30.10
57624;SHT30;43448;52.264;20.644;2023-05-10T00:10:01;25.82;30.29
57624;SHT30;43448;52.264;20.644;2023-05-10T00:20:01;25.82;30.18
57624;SHT30;43448;52.264;20.644;2023-05-10T00:30:01;25.79;29.99
57624;SHT30;43448;52.264;20.644;2023-05-10T00:40:01;25.85;30.15
57624;SHT30;43448;52.264;20.644;2023-05-10T00:50:01;25.87;30.10
57624;SHT30;43448;52.264;20.644;2023-05-10T01:00:01;25.80;30.11
57624;SHT30;43448;52.264;20.644;2023-05-10T01:10:01;25.83;30.20
57624;SHT30;43448;52.264;20.644;2023-05-10T01:20:01;25.80;30.37
57624;SHT30;43448;52.264;20.644;2023-05-10T01:30:08;25.85;30.18
57624;SHT30;43448;52.264;20.644;2023-05-10T01:40:08;25.82;30.23
57624;SHT30;43448;52.264;20.644;2023-05-10T01:50:03;25.82;30.26
57624;SHT30;43448;52.264;20.644;2023-05-10T02:00:03;25.87;30.10
57624;SHT30;43448;52.264;20.644;2023-05-10T02:10:01;25.82;30.59
57624;SHT30;43448;52.264;20.644;2023-05-10T02:20:01;25.89;30.63
57624;SHT30;43448;52.264;20.644;2023-05-10T02:30:01;25.89;30.39
57624;SHT30;43448;52.264;20.644;2023-05-10T02:40:01;25.82;30.81
57624;SHT30;43448;52.264;20.644;2023-05-10T02:50:01;25.83;30.74
57624;SHT30;43448;52.264;20.644;2023-05-10T03:00:01;25.77;30.48
57624;SHT30;43448;52.264;20.644;2023-05-10T03:10:01;25.77;30.41
57624;SHT30;43448;52.264;20.644;2023-05-10T03:20:04;25.77;30.32
57624;SHT30;43448;52.264;20.644;2023-05-10T03:30:02;25.83;30.12
57624;SHT30;43448;52.264;20.644;2023-05-10T03:40:01;25.83;29.67
57624;SHT30;43448;52.264;20.644;2023-05-10T03:50:01;25.64;29.61
57624;SHT30;43448;52.264;20.644;2023-05-10T04:00:01;25.68;28.60
57624;SHT30;43448;52.264;20.644;2023-05-10T04:10:01;25.70;29.41
57624;SHT30;43448;52.264;20.644;2023-05-10T04:20:01;25.73;29.60
57624;SHT30;43448;52.264;20.644;2023-05-10T04:30:01;25.69;29.63
57624;SHT30;43448;52.264;20.644;2023-05-10T04:40:01;25.69;29.79
57624;SHT30;43448;52.264;20.644;2023-05-10T04:50:01;25.66;29.94
57624;SHT30;43448;52.264;20.644;2023-05-10T05:00:01;25.64;29.99
57624;SHT30;43448;52.264;20.644;2023-05-10T05:10:01;25.64;30.02
57624;SHT30;43448;52.264;20.644;2023-05-10T05:20:01;25.61;30.00
57624;SHT30;43448;52.264;20.644;2023-05-10T05:30:01;25.61;29.96
57624;SHT30;43448;52.264;20.644;2023-05-10T05:40:01;25.61;29.93
57624;SHT30;43448;52.264;20.644;2023-05-10T05:50:01;25.61;29.88
57624;SHT30;43448;52.264;20.644;2023-05-10T06:00:01;25.61;29.93
57624;SHT30;43448;52.264;20.644;2023-05-10T06:10:01;25.59;29.91
57624;SHT30;43448;52.264;20.644;2023-05-10T06:20:01;25.58;29.92
57624;SHT30;43448;52.264;20.644;2023-05-10T06:30:01;25.58;29.84
57624;SHT30;43448;52.264;20.644;2023-05-10T06:40:01;25.55;29.79
57624;SHT30;43448;52.264;20.644;2023-05-10T06:50:01;25.55;29.79
57624;SHT30;43448;52.264;20.644;2023-05-10T07:00:01;25.56;29.64
57624;SHT30;43448;52.264;20.644;2023-05-10T07:10:01;25.56;29.64
57624;SHT30;43448;52.264;20.644;2023-05-10T07:20:01;25.53;29.60
57624;SHT30;43448;52.264;20.644;2023-05-10T07:30:01;25.55;29.62
57624;SHT30;43448;52.264;20.644;2023-05-10T07:40:01;25.52;29.71
57624;SHT30;43448;52.264;20.644;2023-05-10T07:50:01;25.53;29.63
57624;SHT30;43448;52.264;20.644;2023-05-10T08:00:01;25.53;29.67
57624;SHT30;43448;52.264;20.644;2023-05-10T08:10:01;25.50;29.61
57624;SHT30;43448;52.264;20.644;2023-05-10T08:20:01;25.52;29.48
57624;SHT30;43448;52.264;20.644;2023-05-10T08:30:01;25.55;29.21
57624;SHT30;43448;52.264;20.644;2023-05-10T08:40:01;25.61;29.05
57624;SHT30;43448;52.264;20.644;2023-05-10T08:50:02;25.68;29.07
57624;SHT30;43448;52.264;20.644;2023-05-10T09:00:01;25.76;28.91
57624;SHT30;43448;52.264;20.644;2023-05-10T09:10:01;25.82;28.82
57624;SHT30;43448;52.264;20.644;2023-05-10T09:20:02;25.92;28.54
57624;SHT30;43448;52.264;20.644;2023-05-10T09:30:01;25.99;28.58
57624;SHT30;43448;52.264;20.644;2023-05-10T09:40:04;26.04;28.53
57624;SHT30;43448;52.264;20.644;2023-05-10T09:50:01;26.10;28.28
57624;SHT30;43448;52.264;20.644;2023-05-10T10:00:01;26.19;28.04
57624;SHT30;43448;52.264;20.644;2023-05-10T10:10:01;26.27;27.82
57624;SHT30;43448;52.264;20.644;2023-05-10T10:20:02;26.33;27.71
57624;SHT30;43448;52.264;20.644;2023-05-10T10:30:06;26.41;27.51
57624;SHT30;43448;52.264;20.644;2023-05-10T10:40:01;26.50;27.45
57624;SHT30;43448;52.264;20.644;2023-05-10T10:50:04;26.52;27.33
57624;SHT30;43448;52.264;20.644;2023-05-10T11:00:34;26.61;27.00
57624;SHT30;43448;52.264;20.644;2023-05-10T11:10:04;26.67;26.74
57624;SHT30;43448;52.264;20.644;2023-05-10T11:20:06;26.71;26.53
57624;SHT30;43448;52.264;20.644;2023-05-10T11:30:01;26.79;26.41
57624;SHT30;43448;52.264;20.644;2023-05-10T11:40:01;26.82;26.36
57624;SHT30;43448;52.264;20.644;2023-05-10T11:50:01;26.88;26.29
57624;SHT30;43448;52.264;20.644;2023-05-10T12:00:01;26.94;26.17
57624;SHT30;43448;52.264;20.644;2023-05-10T12:10:03;26.98;26.11
57624;SHT30;43448;52.264;20.644;2023-05-10T12:20:13;27.01;26.17
57624;SHT30;43448;52.264;20.644;2023-05-10T12:30:02;27.03;26.11
57624;SHT30;43448;52.264;20.644;2023-05-10T12:40:01;27.07;26.11
57624;SHT30;43448;52.264;20.644;2023-05-10T12:50:01;27.09;26.08
57624;SHT30;43448;52.264;20.644;2023-05-10T13:00:01;27.15;26.09
57624;SHT30;43448;52.264;20.644;2023-05-10T13:10:01;27.12;26.12
57624;SHT30;43448;52.264;20.644;2023-05-10T13:20:01;27.10;26.10
57624;SHT30;43448;52.264;20.644;2023-05-10T13:30:02;27.12;26.17
57624;SHT30;43448;52.264;20.644;2023-05-10T13:40:01;27.12;26.29
57624;SHT30;43448;52.264;20.644;2023-05-10T13:50:01;27.10;26.34
57624;SHT30;43448;52.264;20.644;2023-05-10T14:00:01;27.12;26.48
57624;SHT30;43448;52.264;20.644;2023-05-10T14:10:01;27.13;26.39
57624;SHT30;43448;52.264;20.644;2023-05-10T14:20:01;27.16;26.42
57624;SHT30;43448;52.264;20.644;2023-05-10T14:30:01;27.17;26.72
57624;SHT30;43448;52.264;20.644;2023-05-10T14:40:01;27.22;26.84
57624;SHT30;43448;52.264;20.644;2023-05-10T14:50:01;27.23;26.84
57624;SHT30;43448;52.264;20.644;2023-05-10T15:00:01;27.28;26.91
57624;SHT30;43448;52.264;20.644;2023-05-10T15:10:01;27.30;26.94
57624;SHT30;43448;52.264;20.644;2023-05-10T15:20:01;27.36;26.91
57624;SHT30;43448;52.264;20.644;2023-05-10T15:30:01;27.33;26.85
57624;SHT30;43448;52.264;20.644;2023-05-10T15:40:01;27.34;26.75
57624;SHT30;43448;52.264;20.644;2023-05-10T15:50:01;27.33;26.66
57624;SHT30;43448;52.264;20.644;2023-05-10T16:00:01;27.33;26.78
57624;SHT30;43448;52.264;20.644;2023-05-10T16:10:01;27.33;26.94
57624;SHT30;43448;52.264;20.644;2023-05-10T16:20:01;27.30;26.99
57624;SHT30;43448;52.264;20.644;2023-05-10T16:30:01;27.30;26.93
57624;SHT30;43448;52.264;20.644;2023-05-10T16:40:01;27.26;27.00
57624;SHT30;43448;52.264;20.644;2023-05-10T16:50:01;27.28;27.04
57624;SHT30;43448;52.264;20.644;2023-05-10T17:00:01;27.23;27.14
57624;SHT30;43448;52.264;20.644;2023-05-10T17:10:01;27.21;27.27
57624;SHT30;43448;52.264;20.644;2023-05-10T17:20:01;27.13;27.44
57624;SHT30;43448;52.264;20.644;2023-05-10T17:30:01;27.03;27.64
57624;SHT30;43448;52.264;20.644;2023-05-10T17:40:01;26.98;27.63
57624;SHT30;43448;52.264;20.644;2023-05-10T17:50:01;26.95;27.76
57624;SHT30;43448;52.264;20.644;2023-05-10T18:00:01;26.85;27.67
57624;SHT30;43448;52.264;20.644;2023-05-10T18:10:01;26.81;27.70
57624;SHT30;43448;52.264;20.644;2023-05-10T18:20:01;26.77;27.68
57624;SHT30;43448;52.264;20.644;2023-05-10T18:30:01;26.70;27.69
57624;SHT30;43448;52.264;20.644;2023-05-10T18:40:01;26.65;27.53
57624;SHT30;43448;52.264;20.644;2023-05-10T18:50:02;26.58;27.44
57624;SHT30;43448;52.264;20.644;2023-05-10T19:00:01;26.57;27.44
57624;SHT30;43448;52.264;20.644;2023-05-10T19:10:01;26.52;27.33
57624;SHT30;43448;52.264;20.644;2023-05-10T19:20:01;26.50;27.23
57624;SHT30;43448;52.264;20.644;2023-05-10T19:30:01;26.48;27.06
57624;SHT30;43448;52.264;20.644;2023-05-10T19:40:01;26.47;27.10
57624;SHT30;43448;52.264;20.644;2023-05-10T19:50:01;26.44;27.17
57624;SHT30;43448;52.264;20.644;2023-05-10T20:00:01;26.47;26.91
57624;SHT30;43448;52.264;20.644;2023-05-10T20:10:01;26.48;26.79
57624;SHT30;43448;52.264;20.644;2023-05-10T20:20:01;26.43;26.67
57624;SHT30;43448;52.264;20.644;2023-05-10T20:30:01;26.41;26.83
57624;SHT30;43448;52.264;20.644;2023-05-10T20:40:01;26.35;27.17
57624;SHT30;43448;52.264;20.644;2023-05-10T20:50:01;26.31;27.33
57624;SHT30;43448;52.264;20.644;2023-05-10T21:00:01;26.28;27.43
57624;SHT30;43448;52.264;20.644;2023-05-10T21:10:01;26.23;27.63
57624;SHT30;43448;52.264;20.644;2023-05-10T21:20:01;26.26;27.64
57624;SHT30;43448;52.264;20.644;2023-05-10T21:30:01;26.31;27.59
57624;SHT30;43448;52.264;20.644;2023-05-10T21:40:01;26.28;27.80
57624;SHT30;43448;52.264;20.644;2023-05-10T21:50:01;26.35;27.73
57624;SHT30;43448;52.264;20.644;2023-05-10T22:00:01;26.37;27.92
57624;SHT30;43448;52.264;20.644;2023-05-10T22:10:01;26.40;28.93
57624;SHT30;43448;52.264;20.644;2023-05-10T22:20:01;26.35;28.84
57624;SHT30;43448;52.264;20.644;2023-05-10T22:30:01;26.30;29.06
57624;SHT30;43448;52.264;20.644;2023-05-10T22:40:01;26.30;29.12
57624;SHT30;43448;52.264;20.644;2023-05-10T22:50:01;26.24;29.01
57624;SHT30;43448;52.264;20.644;2023-05-10T23:00:01;26.23;28.94
57624;SHT30;43448;52.264;20.644;2023-05-10T23:10:01;26.20;29.21
57624;SHT30;43448;52.264;20.644;2023-05-10T23:20:01;26.17;29.14
57624;SHT30;43448;52.264;20.644;2023-05-10T23:30:01;26.17;29.19
57624;SHT30;43448;52.264;20.644;2023-05-10T23:40:01;26.16;29.22
57624;SHT30;43448;52.264;20.644;2023-05-10T23:50:01;26.17;29.38
